createdAt,value
2023-02-04T00:00:06.928Z,1005.91
2023-02-04T00:01:06.909Z,1005.87
2023-02-04T00:02:06.920Z,1005.88
2023-02-04T00:03:06.991Z,1005.88
2023-02-04T00:04:06.870Z,1005.85
2023-02-04T00:05:06.923Z,1005.89
2023-02-04T00:06:06.950Z,1005.95
2023-02-04T00:07:06.893Z,1005.90
2023-02-04T00:08:06.843Z,1005.92
2023-02-04T00:09:06.854Z,1005.84
2023-02-04T00:10:06.816Z,1005.89
2023-02-04T00:11:06.828Z,1005.84
2023-02-04T00:12:06.836Z,1005.93
2023-02-04T00:13:06.803Z,1006.00
2023-02-04T00:14:06.781Z,1006.01
2023-02-04T00:15:06.786Z,1006.11
2023-02-04T00:16:06.839Z,1006.13
2023-02-04T00:17:06.795Z,1006.14
2023-02-04T00:18:06.758Z,1006.16
2023-02-04T00:19:06.761Z,1006.09
2023-02-04T00:20:06.748Z,1006.13
2023-02-04T00:21:06.734Z,1006.06
2023-02-04T00:22:06.746Z,1006.04
2023-02-04T00:23:07.720Z,1006.12
2023-02-04T00:24:06.718Z,1006.10
2023-02-04T00:25:06.699Z,1006.17
2023-02-04T00:26:06.711Z,1006.18
2023-02-04T00:27:06.731Z,1006.14
2023-02-04T00:28:06.714Z,1006.20
2023-02-04T00:29:06.668Z,1006.22
2023-02-04T00:30:06.816Z,1006.17
2023-02-04T00:31:06.694Z,1006.27
2023-02-04T00:32:06.753Z,1006.28
2023-02-04T00:33:06.647Z,1006.20
2023-02-04T00:34:06.649Z,1006.25
2023-02-04T00:35:06.650Z,1006.26
2023-02-04T00:36:06.629Z,1006.27
2023-02-04T00:37:06.651Z,1006.28
2023-02-04T00:38:06.619Z,1006.33
2023-02-04T00:39:06.613Z,1006.35
2023-02-04T00:40:06.609Z,1006.36
2023-02-04T00:41:06.587Z,1006.30
2023-02-04T00:42:06.624Z,1006.32
2023-02-04T00:43:06.597Z,1006.31
2023-02-04T00:44:06.572Z,1006.30
2023-02-04T00:45:06.572Z,1006.33
2023-02-04T00:46:06.604Z,1006.28
2023-02-04T00:47:06.576Z,1006.31
2023-02-04T00:48:06.545Z,1006.35
2023-02-04T00:49:06.592Z,1006.29
2023-02-04T00:50:06.561Z,1006.36
2023-02-04T00:51:06.544Z,1006.40
2023-02-04T00:52:06.559Z,1006.41
2023-02-04T00:53:06.528Z,1006.34
2023-02-04T00:54:06.494Z,1006.48
2023-02-04T00:55:06.493Z,1006.44
2023-02-04T00:56:06.489Z,1006.48
2023-02-04T00:57:06.501Z,1006.44
2023-02-04T00:58:06.511Z,1006.49
2023-02-04T00:59:06.469Z,1006.57
2023-02-04T01:00:06.521Z,1006.60
2023-02-04T01:01:06.604Z,1006.56
2023-02-04T01:02:06.495Z,1006.59
2023-02-04T01:03:06.494Z,1006.63
2023-02-04T01:04:07.444Z,1006.61
2023-02-04T01:05:06.486Z,1006.55
2023-02-04T01:06:06.420Z,1006.60
2023-02-04T01:07:06.535Z,1006.57
2023-02-04T01:08:06.431Z,1006.68
2023-02-04T01:09:06.408Z,1006.57
2023-02-04T01:10:06.434Z,1006.61
2023-02-04T01:11:06.408Z,1006.65
2023-02-04T01:12:06.411Z,1006.60
2023-02-04T01:13:06.364Z,1006.62
2023-02-04T01:14:06.364Z,1006.64
2023-02-04T01:15:06.351Z,1006.63
2023-02-04T01:16:06.418Z,1006.65
2023-02-04T01:17:06.352Z,1006.68
2023-02-04T01:18:06.385Z,1006.79
2023-02-04T01:19:06.338Z,1006.70
2023-02-04T01:20:06.340Z,1006.78
2023-02-04T01:21:06.306Z,1006.67
2023-02-04T01:22:06.293Z,1006.75
2023-02-04T01:23:06.351Z,1006.84
2023-02-04T01:24:06.273Z,1006.83
2023-02-04T01:25:06.272Z,1006.83
2023-02-04T01:26:06.251Z,1006.74
2023-02-04T01:27:06.252Z,1006.72
2023-02-04T01:28:06.443Z,1006.79
2023-02-04T01:29:06.294Z,1006.84
2023-02-04T01:30:06.232Z,1006.87
2023-02-04T01:31:06.340Z,1006.85
2023-02-04T01:32:06.272Z,1006.82
2023-02-04T01:33:06.253Z,1006.94
2023-02-04T01:34:06.206Z,1007.07
2023-02-04T01:35:06.235Z,1007.00
2023-02-04T01:36:06.246Z,1007.13
2023-02-04T01:37:06.188Z,1007.10
2023-02-04T01:38:06.219Z,1007.14
2023-02-04T01:39:06.146Z,1007.18
2023-02-04T01:40:07.261Z,1007.11
2023-02-04T01:41:06.188Z,1007.23
2023-02-04T01:42:06.181Z,1007.25
2023-02-04T01:43:06.243Z,1007.35
2023-02-04T01:44:06.159Z,1007.41
2023-02-04T01:45:06.163Z,1007.52
2023-02-04T01:46:06.256Z,1007.45
2023-02-04T01:47:06.123Z,1007.54
2023-02-04T01:48:06.123Z,1007.42
2023-02-04T01:49:06.388Z,1007.38
2023-02-04T01:50:06.252Z,1007.30
2023-02-04T01:51:06.088Z,1007.36
2023-02-04T01:52:06.092Z,1007.32
2023-02-04T01:53:06.169Z,1007.22
2023-02-04T01:54:06.061Z,1007.30
2023-02-04T01:55:06.092Z,1007.32
2023-02-04T01:56:06.079Z,1007.33
2023-02-04T01:57:06.030Z,1007.34
2023-02-04T01:58:06.062Z,1007.37
2023-02-04T01:59:06.039Z,1007.37
2023-02-04T02:00:06.203Z,1007.36
2023-02-04T02:01:06.047Z,1007.39
2023-02-04T02:02:06.462Z,1007.33
2023-02-04T02:03:06.082Z,1007.39
2023-02-04T02:04:05.985Z,1007.30
2023-02-04T02:05:06.011Z,1007.49
2023-02-04T02:06:06.003Z,1007.44
2023-02-04T02:07:05.994Z,1007.50
2023-02-04T02:08:06.037Z,1007.50
2023-02-04T02:09:05.986Z,1007.51
2023-02-04T02:10:05.931Z,1007.55
2023-02-04T02:11:05.988Z,1007.57
2023-02-04T02:12:05.924Z,1007.55
2023-02-04T02:13:05.972Z,1007.51
2023-02-04T02:14:05.949Z,1007.56
2023-02-04T02:15:05.932Z,1007.59
2023-02-04T02:16:05.939Z,1007.54
2023-02-04T02:17:05.959Z,1007.53
2023-02-04T02:18:05.941Z,1007.59
2023-02-04T02:19:05.903Z,1007.60
2023-02-04T02:20:05.879Z,1007.64
2023-02-04T02:21:05.882Z,1007.68
2023-02-04T02:22:05.851Z,1007.71
2023-02-04T02:23:05.912Z,1007.66
2023-02-04T02:24:06.845Z,1007.71
2023-02-04T02:25:06.221Z,1007.70
2023-02-04T02:26:05.830Z,1007.72
2023-02-04T02:27:05.929Z,1007.69
2023-02-04T02:28:05.943Z,1007.64
2023-02-04T02:29:05.797Z,1007.66
2023-02-04T02:30:05.819Z,1007.64
2023-02-04T02:31:05.879Z,1007.63
2023-02-04T02:32:05.788Z,1007.62
2023-02-04T02:33:05.828Z,1007.58
2023-02-04T02:34:05.780Z,1007.66
2023-02-04T02:35:05.751Z,1007.71
2023-02-04T02:36:05.776Z,1007.66
2023-02-04T02:37:05.735Z,1007.74
2023-02-04T02:38:05.874Z,1007.78
2023-02-04T02:39:05.740Z,1007.78
2023-02-04T02:40:05.785Z,1007.79
2023-02-04T02:41:05.713Z,1007.80
2023-02-04T02:42:05.730Z,1007.80
2023-02-04T02:43:05.750Z,1007.73
2023-02-04T02:44:05.689Z,1007.79
2023-02-04T02:45:05.675Z,1007.75
2023-02-04T02:46:05.791Z,1007.73
2023-02-04T02:47:05.662Z,1007.84
2023-02-04T02:48:05.693Z,1007.91
2023-02-04T02:49:05.656Z,1007.95
2023-02-04T02:50:05.681Z,1007.92
2023-02-04T02:51:05.687Z,1007.89
2023-02-04T02:52:05.724Z,1007.94
2023-02-04T02:53:05.664Z,1007.89
2023-02-04T02:54:05.598Z,1008.03
2023-02-04T02:55:05.647Z,1007.98
2023-02-04T02:56:05.875Z,1007.97
2023-02-04T02:57:05.636Z,1007.96
2023-02-04T02:58:05.614Z,1008.01
2023-02-04T02:59:05.565Z,1007.89
2023-02-04T03:00:05.724Z,1007.90
2023-02-04T03:01:05.911Z,1007.93
2023-02-04T03:02:05.712Z,1007.95
2023-02-04T03:03:05.596Z,1007.97
2023-02-04T03:04:05.557Z,1007.88
2023-02-04T03:05:05.556Z,1007.96
2023-02-04T03:06:05.531Z,1008.03
2023-02-04T03:07:05.603Z,1007.95
2023-02-04T03:08:05.665Z,1008.02
2023-02-04T03:09:05.494Z,1008.03
2023-02-04T03:10:05.504Z,1007.87
2023-02-04T03:11:05.492Z,1008.02
2023-02-04T03:12:05.463Z,1008.09
2023-02-04T03:13:05.560Z,1008.09
2023-02-04T03:14:05.471Z,1008.03
2023-02-04T03:15:05.440Z,1008.05
2023-02-04T03:16:05.624Z,1008.02
2023-02-04T03:17:05.435Z,1008.08
2023-02-04T03:18:05.544Z,1008.03
2023-02-04T03:19:05.490Z,1007.95
2023-02-04T03:20:05.476Z,1007.99
2023-02-04T03:21:05.477Z,1008.03
2023-02-04T03:22:05.474Z,1008.09
2023-02-04T03:23:05.420Z,1008.13
2023-02-04T03:24:05.413Z,1008.10
2023-02-04T03:25:05.392Z,1008.20
2023-02-04T03:26:05.430Z,1008.23
2023-02-04T03:27:06.398Z,1008.24
2023-02-04T03:28:05.487Z,1008.23
2023-02-04T03:29:05.355Z,1008.24
2023-02-04T03:30:05.373Z,1008.33
2023-02-04T03:31:05.395Z,1008.31
2023-02-04T03:32:05.331Z,1008.33
2023-02-04T03:33:05.370Z,1008.35
2023-02-04T03:34:05.371Z,1008.45
2023-02-04T03:35:05.337Z,1008.52
2023-02-04T03:36:05.324Z,1008.48
2023-02-04T03:37:05.276Z,1008.53
2023-02-04T03:38:05.320Z,1008.53
2023-02-04T03:39:05.273Z,1008.55
2023-02-04T03:40:05.317Z,1008.60
2023-02-04T03:41:05.249Z,1008.69
2023-02-04T03:42:05.302Z,1008.72
2023-02-04T03:43:05.260Z,1008.82
2023-02-04T03:44:05.319Z,1008.91
2023-02-04T03:45:05.247Z,1008.90
2023-02-04T03:46:05.330Z,1009.00
2023-02-04T03:47:05.250Z,1008.92
2023-02-04T03:48:05.221Z,1008.96
2023-02-04T03:49:05.227Z,1009.00
2023-02-04T03:50:05.225Z,1009.07
2023-02-04T03:51:05.227Z,1009.07
2023-02-04T03:52:05.393Z,1009.10
2023-02-04T03:53:05.189Z,1009.09
2023-02-04T03:54:05.202Z,1009.18
2023-02-04T03:55:05.148Z,1009.10
2023-02-04T03:56:05.157Z,1009.15
2023-02-04T03:57:05.141Z,1009.18
2023-02-04T03:58:05.162Z,1009.16
2023-02-04T03:59:05.141Z,1009.16
2023-02-04T04:00:05.133Z,1009.14
2023-02-04T04:01:05.142Z,1009.16
2023-02-04T04:02:05.116Z,1009.18
2023-02-04T04:03:05.185Z,1009.21
2023-02-04T04:04:05.249Z,1009.19
2023-02-04T04:05:05.095Z,1009.23
2023-02-04T04:06:05.061Z,1009.24
2023-02-04T04:07:05.085Z,1009.27
2023-02-04T04:08:05.045Z,1009.27
2023-02-04T04:09:05.091Z,1009.23
2023-02-04T04:10:05.030Z,1009.26
2023-02-04T04:11:05.059Z,1009.22
2023-02-04T04:12:05.048Z,1009.27
2023-02-04T04:13:05.044Z,1009.22
2023-02-04T04:14:05.051Z,1009.22
2023-02-04T04:15:04.990Z,1009.36
2023-02-04T04:16:05.141Z,1009.24
2023-02-04T04:17:04.990Z,1009.29
2023-02-04T04:18:05.000Z,1009.28
2023-02-04T04:19:05.056Z,1009.25
2023-02-04T04:20:04.995Z,1009.29
2023-02-04T04:21:04.958Z,1009.33
2023-02-04T04:22:04.957Z,1009.29
2023-02-04T04:23:05.007Z,1009.35
2023-02-04T04:24:04.988Z,1009.37
2023-02-04T04:25:04.939Z,1009.29
2023-02-04T04:26:04.969Z,1009.34
2023-02-04T04:27:04.911Z,1009.40
2023-02-04T04:28:04.941Z,1009.45
2023-02-04T04:29:05.924Z,1009.52
2023-02-04T04:30:04.968Z,1009.61
2023-02-04T04:31:05.007Z,1009.58
2023-02-04T04:32:04.922Z,1009.62
2023-02-04T04:33:04.882Z,1009.49
2023-02-04T04:34:04.952Z,1009.61
2023-02-04T04:35:04.852Z,1009.61
2023-02-04T04:36:04.852Z,1009.63
2023-02-04T04:37:04.849Z,1009.64
2023-02-04T04:38:04.822Z,1009.72
2023-02-04T04:39:04.891Z,1009.68
2023-02-04T04:40:05.869Z,1009.69
2023-02-04T04:41:04.836Z,1009.68
2023-02-04T04:42:04.794Z,1009.71
2023-02-04T04:43:04.794Z,1009.77
2023-02-04T04:44:04.812Z,1009.77
2023-02-04T04:45:04.804Z,1009.74
2023-02-04T04:46:04.782Z,1009.79
2023-02-04T04:47:04.755Z,1009.74
2023-02-04T04:48:04.769Z,1009.76
2023-02-04T04:49:04.792Z,1009.77
2023-02-04T04:50:04.788Z,1009.78
2023-02-04T04:51:04.731Z,1009.77
2023-02-04T04:52:04.726Z,1009.79
2023-02-04T04:53:04.718Z,1009.75
2023-02-04T04:54:04.793Z,1009.81
2023-02-04T04:55:04.722Z,1009.77
2023-02-04T04:56:04.854Z,1009.81
2023-02-04T04:57:04.730Z,1009.79
2023-02-04T04:58:04.708Z,1009.82
2023-02-04T04:59:04.792Z,1009.75
2023-02-04T05:00:04.708Z,1009.78
2023-02-04T05:01:04.703Z,1009.77
2023-02-04T05:02:04.638Z,1009.80
2023-02-04T05:03:04.651Z,1009.84
2023-02-04T05:04:04.723Z,1009.88
2023-02-04T05:05:04.785Z,1009.89
2023-02-04T05:06:04.630Z,1009.89
2023-02-04T05:07:05.615Z,1009.95
2023-02-04T05:08:04.588Z,1009.97
2023-02-04T05:09:04.847Z,1009.94
2023-02-04T05:10:04.657Z,1009.99
2023-02-04T05:11:04.647Z,1009.96
2023-02-04T05:12:04.652Z,1010.04
2023-02-04T05:13:04.619Z,1010.00
2023-02-04T05:14:04.709Z,1010.01
2023-02-04T05:15:04.579Z,1010.09
2023-02-04T05:16:04.595Z,1010.03
2023-02-04T05:17:04.657Z,1010.06
2023-02-04T05:18:04.596Z,1010.14
2023-02-04T05:19:04.590Z,1010.10
2023-02-04T05:20:04.517Z,1010.22
2023-02-04T05:21:04.584Z,1010.17
2023-02-04T05:22:04.584Z,1010.26
2023-02-04T05:23:05.732Z,1010.25
2023-02-04T05:24:05.507Z,1010.26
2023-02-04T05:25:04.564Z,1010.31
2023-02-04T05:26:04.468Z,1010.29
2023-02-04T05:27:04.468Z,1010.35
2023-02-04T05:28:04.601Z,1010.37
2023-02-04T05:29:04.488Z,1010.37
2023-02-04T05:30:04.519Z,1010.37
2023-02-04T05:31:04.565Z,1010.45
2023-02-04T05:32:04.545Z,1010.48
2023-02-04T05:33:04.410Z,1010.46
2023-02-04T05:34:04.466Z,1010.44
2023-02-04T05:35:05.618Z,1010.52
2023-02-04T05:36:05.401Z,1010.47
2023-02-04T05:37:04.471Z,1010.51
2023-02-04T05:38:04.404Z,1010.46
2023-02-04T05:39:04.398Z,1010.60
2023-02-04T05:40:04.354Z,1010.55
2023-02-04T05:41:04.363Z,1010.57
2023-02-04T05:42:04.376Z,1010.53
2023-02-04T05:43:04.384Z,1010.51
2023-02-04T05:44:04.409Z,1010.54
2023-02-04T05:45:04.368Z,1010.51
2023-02-04T05:46:04.460Z,1010.54
2023-02-04T05:47:04.361Z,1010.57
2023-02-04T05:48:04.370Z,1010.55
2023-02-04T05:49:04.431Z,1010.58
2023-02-04T05:50:04.381Z,1010.61
2023-02-04T05:51:04.323Z,1010.64
2023-02-04T05:52:04.335Z,1010.67
2023-02-04T05:53:04.392Z,1010.67
2023-02-04T05:54:04.397Z,1010.62
2023-02-04T05:55:04.401Z,1010.69
2023-02-04T05:56:04.317Z,1010.74
2023-02-04T05:57:04.265Z,1010.69
2023-02-04T05:58:04.268Z,1010.63
2023-02-04T05:59:04.276Z,1010.57
2023-02-04T06:00:04.259Z,1010.66
2023-02-04T06:01:04.401Z,1010.66
2023-02-04T06:02:04.252Z,1010.60
2023-02-04T06:03:04.226Z,1010.75
2023-02-04T06:04:04.285Z,1010.71
2023-02-04T06:05:04.169Z,1010.72
2023-02-04T06:06:04.384Z,1010.80
2023-02-04T06:07:04.233Z,1010.88
2023-02-04T06:08:04.178Z,1010.78
2023-02-04T06:09:04.159Z,1010.87
2023-02-04T06:10:04.262Z,1010.90
2023-02-04T06:11:04.147Z,1010.86
2023-02-04T06:12:04.105Z,1010.90
2023-02-04T06:13:04.141Z,1010.95
2023-02-04T06:14:04.204Z,1010.99
2023-02-04T06:15:04.145Z,1010.96
2023-02-04T06:16:04.087Z,1010.95
2023-02-04T06:17:04.095Z,1011.04
2023-02-04T06:18:04.092Z,1011.03
2023-02-04T06:19:04.099Z,1011.08
2023-02-04T06:20:04.115Z,1010.96
2023-02-04T06:21:04.111Z,1011.07
2023-02-04T06:22:04.106Z,1011.08
2023-02-04T06:23:04.030Z,1011.14
2023-02-04T06:24:05.439Z,1011.11
2023-02-04T06:25:05.066Z,1011.12
2023-02-04T06:26:04.058Z,1011.19
2023-02-04T06:27:03.997Z,1011.18
2023-02-04T06:28:04.181Z,1011.20
2023-02-04T06:29:04.033Z,1011.21
2023-02-04T06:30:04.018Z,1011.12
2023-02-04T06:31:04.106Z,1011.21
2023-02-04T06:32:04.120Z,1011.23
2023-02-04T06:33:03.967Z,1011.17
2023-02-04T06:34:03.935Z,1011.19
2023-02-04T06:35:04.098Z,1011.22
2023-02-04T06:36:03.954Z,1011.18
2023-02-04T06:37:03.946Z,1011.22
2023-02-04T06:38:03.910Z,1011.28
2023-02-04T06:39:03.900Z,1011.28
2023-02-04T06:40:03.922Z,1011.31
2023-02-04T06:41:03.889Z,1011.35
2023-02-04T06:42:03.899Z,1011.46
2023-02-04T06:43:04.622Z,1011.50
2023-02-04T06:44:04.930Z,1011.59
2023-02-04T06:45:03.921Z,1011.58
2023-02-04T06:46:04.007Z,1011.53
2023-02-04T06:47:03.921Z,1011.61
2023-02-04T06:48:04.005Z,1011.66
2023-02-04T06:49:03.850Z,1011.60
2023-02-04T06:50:03.910Z,1011.59
2023-02-04T06:51:03.848Z,1011.67
2023-02-04T06:52:03.821Z,1011.79
2023-02-04T06:53:03.824Z,1011.80
2023-02-04T06:54:03.857Z,1011.86
2023-02-04T06:55:03.907Z,1011.84
2023-02-04T06:56:03.877Z,1011.81
2023-02-04T06:57:03.798Z,1011.89
2023-02-04T06:58:03.781Z,1011.84
2023-02-04T06:59:03.826Z,1011.91
2023-02-04T07:00:03.822Z,1011.86
2023-02-04T07:01:03.812Z,1011.92
2023-02-04T07:02:03.728Z,1011.88
2023-02-04T07:03:03.719Z,1011.85
2023-02-04T07:04:03.740Z,1011.87
2023-02-04T07:05:03.742Z,1011.92
2023-02-04T07:06:03.700Z,1011.92
2023-02-04T07:07:03.704Z,1011.93
2023-02-04T07:08:03.688Z,1011.99
2023-02-04T07:09:03.688Z,1011.99
2023-02-04T07:10:03.717Z,1011.94
2023-02-04T07:11:03.678Z,1011.87
2023-02-04T07:12:03.651Z,1011.90
2023-02-04T07:13:03.648Z,1011.89
2023-02-04T07:14:03.646Z,1011.99
2023-02-04T07:15:03.663Z,1011.92
2023-02-04T07:16:03.770Z,1012.02
2023-02-04T07:17:03.620Z,1011.99
2023-02-04T07:18:03.605Z,1011.97
2023-02-04T07:19:03.600Z,1012.01
2023-02-04T07:20:03.618Z,1012.09
2023-02-04T07:21:03.597Z,1012.02
2023-02-04T07:22:03.608Z,1012.08
2023-02-04T07:23:03.576Z,1012.10
2023-02-04T07:24:03.565Z,1012.13
2023-02-04T07:25:03.635Z,1012.05
2023-02-04T07:26:03.562Z,1012.16
2023-02-04T07:27:03.575Z,1012.16
2023-02-04T07:28:03.548Z,1012.13
2023-02-04T07:29:03.543Z,1012.18
2023-02-04T07:30:03.549Z,1012.14
2023-02-04T07:31:03.719Z,1012.16
2023-02-04T07:32:03.609Z,1012.27
2023-02-04T07:33:03.516Z,1012.26
2023-02-04T07:34:03.490Z,1012.23
2023-02-04T07:35:03.529Z,1012.30
2023-02-04T07:36:03.489Z,1012.27
2023-02-04T07:37:03.473Z,1012.30
2023-02-04T07:38:03.457Z,1012.30
2023-02-04T07:39:03.444Z,1012.33
2023-02-04T07:40:03.474Z,1012.36
2023-02-04T07:41:03.429Z,1012.35
2023-02-04T07:42:03.411Z,1012.42
2023-02-04T07:43:03.413Z,1012.40
2023-02-04T07:44:03.416Z,1012.36
2023-02-04T07:45:03.415Z,1012.49
2023-02-04T07:46:03.424Z,1012.47
2023-02-04T07:47:03.373Z,1012.48
2023-02-04T07:48:03.373Z,1012.50
2023-02-04T07:49:03.376Z,1012.55
2023-02-04T07:50:03.387Z,1012.62
2023-02-04T07:51:03.358Z,1012.57
2023-02-04T07:52:03.342Z,1012.57
2023-02-04T07:53:03.325Z,1012.52
2023-02-04T07:54:03.365Z,1012.55
2023-02-04T07:55:03.339Z,1012.65
2023-02-04T07:56:03.310Z,1012.65
2023-02-04T07:57:03.321Z,1012.66
2023-02-04T07:58:03.294Z,1012.73
2023-02-04T07:59:03.287Z,1012.78
2023-02-04T08:00:03.304Z,1012.77
2023-02-04T08:01:03.288Z,1012.70
2023-02-04T08:02:03.270Z,1012.77
2023-02-04T08:03:03.392Z,1012.76
2023-02-04T08:04:03.250Z,1012.78
2023-02-04T08:05:03.274Z,1012.69
2023-02-04T08:06:03.235Z,1012.75
2023-02-04T08:07:03.233Z,1012.82
2023-02-04T08:08:03.219Z,1012.86
2023-02-04T08:09:03.205Z,1012.71
2023-02-04T08:10:03.242Z,1012.82
2023-02-04T08:11:03.188Z,1012.83
2023-02-04T08:12:03.193Z,1012.84
2023-02-04T08:13:03.179Z,1012.83
2023-02-04T08:14:03.181Z,1012.85
2023-02-04T08:15:03.194Z,1012.83
2023-02-04T08:16:03.193Z,1012.92
2023-02-04T08:17:03.145Z,1012.85
2023-02-04T08:18:03.140Z,1012.91
2023-02-04T08:19:03.137Z,1012.92
2023-02-04T08:20:03.191Z,1012.89
2023-02-04T08:21:03.239Z,1012.89
2023-02-04T08:22:03.125Z,1012.93
2023-02-04T08:23:03.121Z,1012.96
2023-02-04T08:24:03.112Z,1012.98
2023-02-04T08:25:03.222Z,1012.96
2023-02-04T08:26:03.172Z,1012.98
2023-02-04T08:27:03.077Z,1013.03
2023-02-04T08:28:03.144Z,1013.07
2023-02-04T08:29:03.053Z,1013.02
2023-02-04T08:30:03.164Z,1013.03
2023-02-04T08:31:03.175Z,1013.07
2023-02-04T08:32:03.129Z,1012.99
2023-02-04T08:33:03.060Z,1013.04
2023-02-04T08:34:03.071Z,1013.10
2023-02-04T08:35:03.924Z,1013.08
2023-02-04T08:36:03.037Z,1013.09
2023-02-04T08:37:03.051Z,1013.18
2023-02-04T08:38:03.037Z,1013.16
2023-02-04T08:39:03.015Z,1013.18
2023-02-04T08:40:03.075Z,1013.23
2023-02-04T08:41:02.966Z,1013.13
2023-02-04T08:42:02.992Z,1013.09
2023-02-04T08:43:03.049Z,1013.19
2023-02-04T08:44:03.049Z,1013.15
2023-02-04T08:45:03.253Z,1013.28
2023-02-04T08:46:03.043Z,1013.22
2023-02-04T08:47:02.970Z,1013.22
2023-02-04T08:48:02.964Z,1013.31
2023-02-04T08:49:03.075Z,1013.26
2023-02-04T08:50:03.027Z,1013.29
2023-02-04T08:51:02.930Z,1013.31
2023-02-04T08:52:02.931Z,1013.33
2023-02-04T08:53:02.930Z,1013.31
2023-02-04T08:54:02.941Z,1013.36
2023-02-04T08:55:02.921Z,1013.40
2023-02-04T08:56:02.884Z,1013.43
2023-02-04T08:57:02.936Z,1013.37
2023-02-04T08:58:02.932Z,1013.39
2023-02-04T08:59:02.954Z,1013.41
2023-02-04T09:00:02.880Z,1013.44
2023-02-04T09:01:02.974Z,1013.45
2023-02-04T09:02:02.903Z,1013.34
2023-02-04T09:03:02.923Z,1013.41
2023-02-04T09:04:02.838Z,1013.41
2023-02-04T09:05:02.836Z,1013.42
2023-02-04T09:06:02.873Z,1013.41
2023-02-04T09:07:02.809Z,1013.41
2023-02-04T09:08:02.803Z,1013.40
2023-02-04T09:09:02.867Z,1013.36
2023-02-04T09:10:02.831Z,1013.44
2023-02-04T09:11:02.840Z,1013.34
2023-02-04T09:12:02.784Z,1013.43
2023-02-04T09:13:02.779Z,1013.37
2023-02-04T09:14:02.831Z,1013.32
2023-02-04T09:15:02.782Z,1013.33
2023-02-04T09:16:03.138Z,1013.30
2023-02-04T09:17:02.755Z,1013.27
2023-02-04T09:18:02.757Z,1013.27
2023-02-04T09:19:02.822Z,1013.35
2023-02-04T09:20:02.726Z,1013.31
2023-02-04T09:21:02.761Z,1013.41
2023-02-04T09:22:02.755Z,1013.48
2023-02-04T09:23:02.761Z,1013.51
2023-02-04T09:24:02.710Z,1013.51
2023-02-04T09:25:02.704Z,1013.55
2023-02-04T09:26:02.750Z,1013.40
2023-02-04T09:27:02.837Z,1013.54
2023-02-04T09:28:02.745Z,1013.55
2023-02-04T09:29:02.653Z,1013.61
2023-02-04T09:30:02.650Z,1013.53
2023-02-04T09:31:04.532Z,1013.56
2023-02-04T09:32:03.714Z,1013.59
2023-02-04T09:33:02.617Z,1013.53
2023-02-04T09:34:02.687Z,1013.57
2023-02-04T09:35:02.736Z,1013.56
2023-02-04T09:36:02.765Z,1013.57
2023-02-04T09:37:02.653Z,1013.58
2023-02-04T09:38:02.608Z,1013.54
2023-02-04T09:39:02.684Z,1013.50
2023-02-04T09:40:02.578Z,1013.53
2023-02-04T09:41:02.733Z,1013.52
2023-02-04T09:42:02.692Z,1013.59
2023-02-04T09:43:02.564Z,1013.59
2023-02-04T09:44:02.619Z,1013.56
2023-02-04T09:45:02.591Z,1013.65
2023-02-04T09:46:02.655Z,1013.64
2023-02-04T09:47:03.602Z,1013.69
2023-02-04T09:48:02.519Z,1013.72
2023-02-04T09:49:02.577Z,1013.76
2023-02-04T09:50:02.545Z,1013.82
2023-02-04T09:51:02.559Z,1013.87
2023-02-04T09:52:02.628Z,1013.90
2023-02-04T09:53:02.556Z,1013.87
2023-02-04T09:54:02.559Z,1013.94
2023-02-04T09:55:02.485Z,1013.82
2023-02-04T09:56:02.524Z,1013.96
2023-02-04T09:57:02.505Z,1013.97
2023-02-04T09:58:02.434Z,1013.98
2023-02-04T09:59:02.436Z,1014.00
2023-02-04T10:00:02.562Z,1014.05
2023-02-04T10:01:02.565Z,1014.04
2023-02-04T10:02:02.470Z,1014.11
2023-02-04T10:03:02.371Z,1014.12
2023-02-04T10:04:02.545Z,1014.07
2023-02-04T10:05:02.373Z,1014.11
2023-02-04T10:06:02.449Z,1013.99
2023-02-04T10:07:02.390Z,1014.09
2023-02-04T10:08:02.369Z,1014.14
2023-02-04T10:09:02.385Z,1014.18
2023-02-04T10:10:02.332Z,1014.20
2023-02-04T10:11:02.370Z,1014.13
2023-02-04T10:12:02.355Z,1014.20
2023-02-04T10:13:02.324Z,1014.16
2023-02-04T10:14:02.406Z,1014.18
2023-02-04T10:15:02.314Z,1014.24
2023-02-04T10:16:02.406Z,1014.19
2023-02-04T10:17:02.483Z,1014.13
2023-02-04T10:18:02.269Z,1014.20
2023-02-04T10:19:02.389Z,1014.22
2023-02-04T10:20:02.284Z,1014.23
2023-02-04T10:21:02.364Z,1014.22
2023-02-04T10:22:02.368Z,1014.29
2023-02-04T10:23:02.360Z,1014.25
2023-02-04T10:24:02.293Z,1014.32
2023-02-04T10:25:02.384Z,1014.35
2023-02-04T10:26:02.339Z,1014.34
2023-02-04T10:27:02.311Z,1014.37
2023-02-04T10:28:02.450Z,1014.39
2023-02-04T10:29:02.373Z,1014.36
2023-02-04T10:30:02.185Z,1014.34
2023-02-04T10:31:02.484Z,1014.41
2023-02-04T10:32:02.194Z,1014.41
2023-02-04T10:33:02.192Z,1014.42
2023-02-04T10:34:02.260Z,1014.41
2023-02-04T10:35:02.257Z,1014.35
2023-02-04T10:36:02.179Z,1014.40
2023-02-04T10:37:02.179Z,1014.43
2023-02-04T10:38:02.184Z,1014.42
2023-02-04T10:39:02.155Z,1014.43
2023-02-04T10:40:02.244Z,1014.40
2023-02-04T10:41:02.458Z,1014.42
2023-02-04T10:42:02.106Z,1014.41
2023-02-04T10:43:02.181Z,1014.40
2023-02-04T10:44:02.230Z,1014.44
2023-02-04T10:45:02.144Z,1014.40
2023-02-04T10:46:02.218Z,1014.44
2023-02-04T10:47:02.116Z,1014.40
2023-02-04T10:48:02.062Z,1014.46
2023-02-04T10:49:02.125Z,1014.42
2023-02-04T10:50:02.031Z,1014.49
2023-02-04T10:51:02.073Z,1014.52
2023-02-04T10:52:02.087Z,1014.47
2023-02-04T10:53:02.079Z,1014.49
2023-02-04T10:54:02.030Z,1014.57
2023-02-04T10:55:02.049Z,1014.57
2023-02-04T10:56:02.197Z,1014.54
2023-02-04T10:57:03.045Z,1014.55
2023-02-04T10:58:02.035Z,1014.52
2023-02-04T10:59:02.042Z,1014.53
2023-02-04T11:00:02.010Z,1014.56
2023-02-04T11:01:02.018Z,1014.54
2023-02-04T11:02:02.054Z,1014.54
2023-02-04T11:03:02.024Z,1014.52
2023-02-04T11:04:01.992Z,1014.56
2023-02-04T11:05:02.040Z,1014.55
2023-02-04T11:06:01.932Z,1014.49
2023-02-04T11:07:01.962Z,1014.52
2023-02-04T11:08:01.924Z,1014.68
2023-02-04T11:09:01.894Z,1014.63
2023-02-04T11:10:01.912Z,1014.61
2023-02-04T11:11:01.922Z,1014.57
2023-02-04T11:12:01.931Z,1014.66
2023-02-04T11:13:01.966Z,1014.60
2023-02-04T11:14:01.910Z,1014.66
2023-02-04T11:15:01.890Z,1014.62
2023-02-04T11:16:01.938Z,1014.69
2023-02-04T11:17:01.916Z,1014.70
2023-02-04T11:18:01.825Z,1014.70
2023-02-04T11:19:01.889Z,1014.74
2023-02-04T11:20:01.869Z,1014.66
2023-02-04T11:21:01.843Z,1014.72
2023-02-04T11:22:01.949Z,1014.67
2023-02-04T11:23:01.810Z,1014.64
2023-02-04T11:24:01.779Z,1014.68
2023-02-04T11:25:01.862Z,1014.72
2023-02-04T11:26:01.808Z,1014.69
2023-02-04T11:27:01.769Z,1014.70
2023-02-04T11:28:01.852Z,1014.77
2023-02-04T11:29:01.794Z,1014.70
2023-02-04T11:30:01.768Z,1014.73
2023-02-04T11:31:01.957Z,1014.74
2023-02-04T11:32:01.925Z,1014.70
2023-02-04T11:33:01.729Z,1014.67
2023-02-04T11:34:01.735Z,1014.77
2023-02-04T11:35:01.735Z,1014.76
2023-02-04T11:36:01.697Z,1014.81
2023-02-04T11:37:01.723Z,1014.85
2023-02-04T11:38:01.706Z,1014.89
2023-02-04T11:39:01.655Z,1014.92
2023-02-04T11:40:01.660Z,1014.92
2023-02-04T11:41:01.771Z,1014.90
2023-02-04T11:42:01.803Z,1014.98
2023-02-04T11:43:01.685Z,1014.98
2023-02-04T11:44:01.641Z,1014.96
2023-02-04T11:45:01.609Z,1014.93
2023-02-04T11:46:01.644Z,1014.96
2023-02-04T11:47:01.668Z,1014.95
2023-02-04T11:48:01.581Z,1014.99
2023-02-04T11:49:01.598Z,1014.94
2023-02-04T11:50:01.581Z,1014.91
2023-02-04T11:51:01.586Z,1014.91
2023-02-04T11:52:01.593Z,1014.82
2023-02-04T11:53:01.613Z,1014.80
2023-02-04T11:54:01.612Z,1014.80
2023-02-04T11:55:01.630Z,1014.80
2023-02-04T11:56:01.590Z,1014.85
2023-02-04T11:57:01.586Z,1014.74
2023-02-04T11:58:01.584Z,1014.75
2023-02-04T11:59:01.529Z,1014.81
2023-02-04T12:00:01.654Z,1014.83
2023-02-04T12:01:01.554Z,1014.75
2023-02-04T12:02:01.571Z,1014.81
2023-02-04T12:03:01.511Z,1014.87
2023-02-04T12:04:01.621Z,1014.77
2023-02-04T12:05:01.497Z,1014.82